createdAt,value
2018-10-21T00:02:04.272Z,102790.42
2018-10-21T00:04:32.334Z,102788.45
2018-10-21T00:07:00.403Z,102780.71
2018-10-21T00:09:28.478Z,102785.98
2018-10-21T00:11:56.549Z,102783.47
2018-10-21T00:14:24.598Z,102782.93
2018-10-21T00:16:52.668Z,102789.00
2018-10-21T00:19:20.752Z,102786.23
2018-10-21T00:21:48.980Z,102787.91
2018-10-21T00:24:17.041Z,102792.05
2018-10-21T00:26:45.108Z,102792.31
2018-10-21T00:29:13.174Z,102799.80
2018-10-21T00:31:41.268Z,102799.25
2018-10-21T00:34:09.332Z,102798.67
2018-10-21T00:36:37.397Z,102797.03
2018-10-21T00:39:08.591Z,102801.14
2018-10-21T00:41:36.600Z,102800.31
2018-10-21T00:44:04.981Z,102798.92
2018-10-21T00:46:33.049Z,102798.38
2018-10-21T00:49:01.108Z,102793.40
2018-10-21T00:51:29.210Z,102782.34
2018-10-21T00:53:57.344Z,102784.55
2018-10-21T00:56:25.402Z,102782.59
2018-10-21T00:58:53.464Z,102780.08
2018-10-21T01:01:21.532Z,102778.14
2018-10-21T01:03:49.602Z,102773.16
2018-10-21T01:06:17.681Z,102768.72
2018-10-21T01:08:45.765Z,102771.73
2018-10-21T01:11:13.854Z,102759.29
2018-10-21T01:13:41.936Z,102753.47
2018-10-21T01:16:10.004Z,102757.61
2018-10-21T01:18:38.060Z,102750.98
2018-10-21T01:21:06.173Z,102751.52
2018-10-21T01:23:34.210Z,102742.39
2018-10-21T01:26:02.264Z,102739.34
2018-10-21T01:28:30.352Z,102736.56
2018-10-21T01:30:58.436Z,102732.95
2018-10-21T01:33:26.519Z,102736.52
2018-10-21T01:35:54.590Z,102730.44
2018-10-21T01:38:22.728Z,102730.14
2018-10-21T01:40:53.026Z,102726.83
2018-10-21T01:43:23.337Z,102724.59
2018-10-21T01:45:51.423Z,102722.67
2018-10-21T01:48:20.628Z,102727.07
2018-10-21T01:50:48.692Z,102724.59
2018-10-21T01:53:17.587Z,102721.28
2018-10-21T01:55:45.636Z,102727.91
2018-10-21T01:58:13.689Z,102719.61
2018-10-21T02:00:42.299Z,102721.28
2018-10-21T02:03:10.487Z,102727.89
2018-10-21T02:05:38.954Z,102728.98
2018-10-21T02:08:07.027Z,102722.35
2018-10-21T02:10:35.105Z,102726.75
2018-10-21T02:13:03.201Z,102720.38
2018-10-21T02:15:31.240Z,102724.53
2018-10-21T02:17:59.300Z,102720.91
2018-10-21T02:20:27.780Z,102720.66
2018-10-21T02:22:55.847Z,102722.05
2018-10-21T02:25:23.880Z,102718.15
2018-10-21T02:27:52.716Z,102718.98
2018-10-21T02:30:21.999Z,102717.05
2018-10-21T02:32:50.694Z,102727.52
2018-10-21T02:35:19.276Z,102721.14
2018-10-21T02:37:47.661Z,102726.13
2018-10-21T02:41:29.447Z,102734.97
2018-10-21T02:43:57.511Z,102739.11
2018-10-21T02:46:25.789Z,102736.05
2018-10-21T02:48:54.895Z,102734.66
2018-10-21T02:51:22.945Z,102728.03
2018-10-21T02:53:51.072Z,102726.07
2018-10-21T02:56:19.120Z,102733.27
2018-10-21T02:58:47.208Z,102723.30
2018-10-21T03:01:15.272Z,102722.45
2018-10-21T03:03:43.328Z,102713.05
2018-10-21T03:06:11.374Z,102716.06
2018-10-21T03:08:39.876Z,102709.44
2018-10-21T03:11:07.984Z,102708.58
2018-10-21T03:13:36.073Z,102708.58
2018-10-21T03:16:04.580Z,102707.73
2018-10-21T03:18:32.756Z,102714.05
2018-10-21T03:21:01.709Z,102710.98
2018-10-21T03:23:29.724Z,102716.23
2018-10-21T03:25:57.981Z,102722.83
2018-10-21T03:28:26.037Z,102731.13
2018-10-21T03:30:54.128Z,102731.36
2018-10-21T03:33:22.383Z,102728.02
2018-10-21T03:35:50.259Z,102725.79
2018-10-21T03:38:18.344Z,102729.62
2018-10-21T03:40:46.411Z,102732.92
2018-10-21T03:43:14.475Z,102738.45
2018-10-21T03:45:42.545Z,102738.70
2018-10-21T03:48:10.616Z,102735.37
2018-10-21T03:50:38.672Z,102730.91
2018-10-21T03:53:06.732Z,102725.63
2018-10-21T03:55:36.566Z,102731.69
2018-10-21T03:58:05.368Z,102730.84
2018-10-21T04:00:33.468Z,102735.53
2018-10-21T04:03:01.569Z,102731.37
2018-10-21T04:05:29.661Z,102739.66
2018-10-21T04:07:57.720Z,102736.89
2018-10-21T04:10:25.800Z,102736.04
2018-10-21T04:12:53.856Z,102738.81
2018-10-21T04:15:21.921Z,102736.88
2018-10-21T04:17:49.983Z,102741.28
2018-10-21T04:20:18.060Z,102735.19
2018-10-21T04:23:01.748Z,102732.97
2018-10-21T04:25:30.920Z,102730.20
2018-10-21T04:27:59.837Z,102735.19
2018-10-21T04:30:30.038Z,102730.20
2018-10-21T04:34:03.312Z,102728.27
2018-10-21T04:36:32.733Z,102729.65
2018-10-21T04:40:14.163Z,102729.40
2018-10-21T04:42:42.309Z,102726.09
2018-10-21T04:45:11.084Z,102718.34
2018-10-21T04:47:39.139Z,102722.20
2018-10-21T04:50:08.490Z,102714.72
2018-10-21T04:52:36.542Z,102715.55
2018-10-21T04:55:09.197Z,102721.04
2018-10-21T04:57:38.381Z,102714.09
2018-10-21T05:00:11.376Z,102714.65
2018-10-21T05:02:39.473Z,102714.93
2018-10-21T05:05:08.384Z,102710.50
2018-10-21T05:07:36.674Z,102703.85
2018-10-21T05:10:07.700Z,102710.23
2018-10-21T05:12:35.700Z,102704.69
2018-10-21T05:15:03.815Z,102698.56
2018-10-21T05:17:31.855Z,102695.24
2018-10-21T05:19:59.924Z,102688.84
2018-10-21T05:22:27.996Z,102693.84
2018-10-21T05:24:56.076Z,102695.22
2018-10-21T05:27:24.141Z,102694.94
2018-10-21T05:29:52.224Z,102689.70
2018-10-21T05:32:20.297Z,102695.80
2018-10-21T05:34:48.374Z,102704.10
2018-10-21T05:37:16.457Z,102701.33
2018-10-21T05:39:44.520Z,102694.16
2018-10-21T05:42:12.580Z,102690.30
2018-10-21T05:44:40.677Z,102693.34
2018-10-21T05:47:08.760Z,102688.11
2018-10-21T05:49:36.840Z,102687.03
2018-10-21T05:52:04.999Z,102690.65
2018-10-21T05:54:37.228Z,102690.69
2018-10-21T05:57:05.402Z,102697.61
2018-10-21T05:59:33.451Z,102709.84
2018-10-21T06:02:01.541Z,102705.16
2018-10-21T06:04:29.605Z,102709.62
2018-10-21T06:06:57.680Z,102719.09
2018-10-21T06:09:25.740Z,102721.32
2018-10-21T06:11:53.799Z,102714.65
2018-10-21T06:14:21.900Z,102722.17
2018-10-21T06:16:52.529Z,102720.78
2018-10-21T06:19:24.557Z,102725.72
2018-10-21T06:21:54.455Z,102721.02
2018-10-21T06:24:22.496Z,102714.08
2018-10-21T06:26:50.572Z,102718.77
2018-10-21T06:29:18.636Z,102717.90
2018-10-21T06:31:46.697Z,102715.66
2018-10-21T06:34:14.760Z,102720.59
2018-10-21T06:36:42.893Z,102716.12
2018-10-21T06:39:10.991Z,102722.50
2018-10-21T06:41:38.953Z,102723.28
2018-10-21T06:44:07.132Z,102722.95
2018-10-21T06:46:35.216Z,102721.00
2018-10-21T06:49:03.329Z,102728.98
2018-10-21T06:51:31.409Z,102729.77
2018-10-21T06:53:59.548Z,102736.95
2018-10-21T06:56:27.666Z,102729.42
2018-10-21T06:58:55.673Z,102731.03
2018-10-21T07:01:23.753Z,102729.62
2018-10-21T07:03:51.816Z,102738.17
2018-10-21T07:06:23.159Z,102734.22
2018-10-21T07:08:52.387Z,102743.59
2018-10-21T07:11:20.455Z,102744.70
2018-10-21T07:13:48.515Z,102745.45
2018-10-21T07:16:16.783Z,102747.05
2018-10-21T07:18:45.619Z,102748.87
2018-10-21T07:21:13.800Z,102746.06
2018-10-21T07:23:41.913Z,102750.72
2018-10-21T07:26:10.024Z,102751.77
2018-10-21T07:28:38.144Z,102750.86
2018-10-21T07:31:06.204Z,102746.95
2018-10-21T07:33:34.260Z,102753.24
2018-10-21T07:36:02.328Z,102749.83
2018-10-21T07:38:30.409Z,102753.93
2018-10-21T07:40:58.469Z,102758.84
2018-10-21T07:43:26.584Z,102752.39
2018-10-21T07:45:54.659Z,102746.75
2018-10-21T07:48:22.720Z,102748.64
2018-10-21T07:50:50.797Z,102752.15
2018-10-21T07:53:18.895Z,102749.25
2018-10-21T07:55:47.016Z,102754.42
2018-10-21T07:58:15.072Z,102755.98
2018-10-21T08:00:43.115Z,102755.64
2018-10-21T08:03:11.196Z,102761.99
2018-10-21T08:05:50.576Z,102755.82
2018-10-21T08:08:26.303Z,102762.42
2018-10-21T08:10:54.316Z,102767.38
2018-10-21T08:13:24.669Z,102762.59
2018-10-21T08:15:52.752Z,102759.47
2018-10-21T08:18:20.824Z,102758.25
2018-10-21T08:20:49.896Z,102766.51
2018-10-21T08:23:18.694Z,102766.09
2018-10-21T08:25:48.189Z,102767.96
2018-10-21T08:28:16.409Z,102767.02
2018-10-21T08:30:44.385Z,102766.42
2018-10-21T08:33:12.496Z,102771.63
2018-10-21T08:35:40.608Z,102774.37
2018-10-21T08:38:08.738Z,102776.55
2018-10-21T08:40:36.804Z,102773.73
2018-10-21T08:43:05.185Z,102777.55
2018-10-21T08:45:33.280Z,102772.23
2018-10-21T08:48:01.373Z,102774.97
2018-10-21T08:50:29.434Z,102774.12
2018-10-21T08:52:57.524Z,102776.35
2018-10-21T08:55:25.634Z,102772.98
2018-10-21T08:57:53.812Z,102766.83
2018-10-21T09:02:49.018Z,102770.44
2018-10-21T09:05:18.453Z,102768.45
2018-10-21T09:07:46.792Z,102763.41
2018-10-21T09:10:17.726Z,102765.03
2018-10-21T09:12:45.670Z,102759.92
2018-10-21T09:15:15.432Z,102764.31
2018-10-21T09:17:43.440Z,102766.14
2018-10-21T09:20:13.717Z,102763.23
2018-10-21T09:22:41.781Z,102760.02
2018-10-21T09:25:10.772Z,102757.38
2018-10-21T09:27:39.648Z,102757.02
2018-10-21T09:30:09.064Z,102761.93
2018-10-21T09:32:37.199Z,102758.14
2018-10-21T09:35:06.328Z,102754.16
2018-10-21T09:37:34.421Z,102759.31
2018-10-21T09:40:02.526Z,102756.42
2018-10-21T09:42:30.576Z,102751.29
2018-10-21T09:44:58.665Z,102751.24
2018-10-21T09:47:26.825Z,102748.64
2018-10-21T09:49:54.945Z,102744.42
2018-10-21T09:52:22.999Z,102744.37
2018-10-21T09:54:51.129Z,102740.28
2018-10-21T09:57:19.181Z,102738.64
2018-10-21T09:59:47.265Z,102739.81
2018-10-21T10:02:20.576Z,102739.80
2018-10-21T10:04:48.708Z,102734.30
2018-10-21T10:07:16.885Z,102733.59
2018-10-21T10:09:44.905Z,102725.95
2018-10-21T10:12:13.011Z,102724.73
2018-10-21T10:14:41.156Z,102722.89
2018-10-21T10:17:09.232Z,102720.28
2018-10-21T10:19:37.326Z,102717.34
2018-10-21T10:22:05.460Z,102718.55
2018-10-21T10:24:33.453Z,102709.14
2018-10-21T10:27:01.560Z,102710.02
2018-10-21T10:29:29.680Z,102707.50
2018-10-21T10:31:57.833Z,102702.19
2018-10-21T10:34:25.925Z,102704.72
2018-10-21T10:36:54.056Z,102701.80
2018-10-21T10:39:22.097Z,102706.08
2018-10-21T10:41:50.192Z,102706.08
2018-10-21T10:44:18.292Z,102702.28
2018-10-21T10:46:46.420Z,102698.53
2018-10-21T10:49:14.687Z,102699.28
2018-10-21T10:51:42.688Z,102695.53
2018-10-21T10:54:10.748Z,102686.91
2018-10-21T10:56:38.828Z,102691.75
2018-10-21T10:59:06.979Z,102692.17
2018-10-21T11:01:35.080Z,102696.53
2018-10-21T11:04:03.197Z,102679.86
2018-10-21T11:06:31.271Z,102683.45
2018-10-21T11:08:59.385Z,102676.39
2018-10-21T11:11:27.510Z,102673.48
2018-10-21T11:13:55.592Z,102670.37
2018-10-21T11:16:23.686Z,102666.81
2018-10-21T11:18:51.761Z,102662.58
2018-10-21T11:21:19.852Z,102664.44
2018-10-21T11:23:47.958Z,102666.30
2018-10-21T11:26:16.054Z,102664.06
2018-10-21T11:28:44.118Z,102662.23
2018-10-21T11:31:12.291Z,102657.75
2018-10-21T11:33:40.299Z,102658.38
2018-10-21T11:36:08.377Z,102657.28
2018-10-21T11:38:36.429Z,102654.83
2018-10-21T11:41:04.563Z,102652.95
2018-10-21T11:43:32.640Z,102650.19
2018-10-21T11:46:00.800Z,102648.27
2018-10-21T11:48:28.815Z,102647.82
2018-10-21T11:50:56.890Z,102651.67
2018-10-21T11:53:24.957Z,102647.47
2018-10-21T11:55:53.030Z,102652.02
2018-10-21T11:58:21.131Z,102645.37
2018-10-21T12:00:49.205Z,102644.98
2018-10-21T12:03:17.304Z,102637.51
2018-10-21T12:05:45.371Z,102637.69
2018-10-21T12:08:13.747Z,102631.57
2018-10-21T12:10:41.804Z,102639.17
2018-10-21T12:13:09.924Z,102632.62
2018-10-21T12:15:38.008Z,102632.54
2018-10-21T12:18:06.449Z,102633.77
2018-10-21T12:20:34.505Z,102633.41
2018-10-21T12:23:02.659Z,102628.13
2018-10-21T12:25:30.668Z,102630.36
2018-10-21T12:27:58.727Z,102622.22
2018-10-21T12:30:26.774Z,102622.58
2018-10-21T12:32:54.857Z,102626.54
2018-10-21T12:35:22.899Z,102627.16
2018-10-21T12:37:50.971Z,102624.09
2018-10-21T12:40:19.060Z,102627.81
2018-10-21T12:42:47.112Z,102623.97
2018-10-21T12:45:15.282Z,102624.66
2018-10-21T12:47:43.280Z,102619.84
2018-10-21T12:50:11.336Z,102614.95
2018-10-21T12:52:39.400Z,102615.04
2018-10-21T12:55:08.369Z,102612.11
2018-10-21T12:57:37.055Z,102607.30
2018-10-21T13:00:06.444Z,102612.77
2018-10-21T13:02:35.094Z,102601.77
2018-10-21T13:05:03.906Z,102599.41
2018-10-21T13:07:31.999Z,102597.75
2018-10-21T13:10:00.118Z,102596.22
2018-10-21T13:12:28.144Z,102595.26
2018-10-21T13:14:56.233Z,102598.97
2018-10-21T13:17:24.381Z,102593.95
2018-10-21T13:19:52.492Z,102591.84
2018-10-21T13:22:21.280Z,102593.91
2018-10-21T13:24:50.513Z,102584.46
2018-10-21T13:27:18.604Z,102582.19
2018-10-21T13:29:46.681Z,102581.70
2018-10-21T13:32:14.772Z,102580.27
2018-10-21T13:34:42.957Z,102585.28
2018-10-21T13:37:11.147Z,102578.04
2018-10-21T13:39:39.136Z,102573.14
2018-10-21T13:42:07.203Z,102577.51
2018-10-21T13:44:35.274Z,102568.50
2018-10-21T13:47:03.341Z,102572.34
2018-10-21T13:49:31.393Z,102572.48
2018-10-21T13:51:59.676Z,102563.78
2018-10-21T13:54:27.537Z,102562.27
2018-10-21T13:56:55.608Z,102559.95
2018-10-21T13:59:23.676Z,102569.73
2018-10-21T14:01:51.728Z,102557.11
2018-10-21T14:04:19.871Z,102552.78
2018-10-21T14:06:47.945Z,102554.18
2018-10-21T14:09:15.948Z,102561.34
2018-10-21T14:11:44.022Z,102555.23
2018-10-21T14:14:12.376Z,102548.36
2018-10-21T14:16:40.800Z,102549.11
2018-10-21T14:19:09.143Z,102544.00
2018-10-21T14:21:37.208Z,102540.29
2018-10-21T14:24:05.418Z,102540.16
2018-10-21T14:26:33.528Z,102544.91
2018-10-21T14:29:01.602Z,102537.30
2018-10-21T14:31:29.653Z,102526.50
2018-10-21T14:33:57.714Z,102526.89
2018-10-21T14:36:25.848Z,102524.73
2018-10-21T14:38:53.983Z,102529.20
2018-10-21T14:41:22.052Z,102525.14
2018-10-21T14:43:50.448Z,102522.47
2018-10-21T14:46:18.512Z,102517.19
2018-10-21T14:48:46.601Z,102516.62
2018-10-21T14:51:14.748Z,102517.81
2018-10-21T14:53:42.731Z,102509.78
2018-10-21T14:56:10.843Z,102516.09
2018-10-21T14:58:38.881Z,102506.03
2018-10-21T15:01:06.948Z,102504.45
2018-10-21T15:03:35.305Z,102497.16
2018-10-21T15:06:03.427Z,102503.75
2018-10-21T15:08:31.443Z,102498.86
2018-10-21T15:10:59.513Z,102502.00
2018-10-21T15:13:27.587Z,102499.52
2018-10-21T15:15:55.695Z,102502.91
2018-10-21T15:18:23.737Z,102499.86
2018-10-21T15:20:51.813Z,102493.22
2018-10-21T15:23:19.895Z,102491.56
2018-10-21T15:25:47.949Z,102491.68
2018-10-21T15:28:16.059Z,102493.99
2018-10-21T15:30:44.108Z,102493.52
2018-10-21T15:33:12.181Z,102483.53
2018-10-21T15:35:40.235Z,102488.98
2018-10-21T15:38:08.800Z,102489.41
2018-10-21T15:40:36.796Z,102489.75
2018-10-21T15:43:04.902Z,102487.47
2018-10-21T15:45:33.016Z,102489.38
2018-10-21T15:48:01.046Z,102492.59
2018-10-21T15:50:29.155Z,102490.48
2018-10-21T15:52:57.166Z,102497.20
2018-10-21T15:55:25.228Z,102490.82
2018-10-21T15:57:53.288Z,102493.12
2018-10-21T16:00:21.565Z,102500.42
2018-10-21T16:02:49.628Z,102493.44
2018-10-21T16:05:17.701Z,102490.91
2018-10-21T16:07:45.752Z,102491.81
2018-10-21T16:10:13.835Z,102496.57
2018-10-21T16:12:41.860Z,102494.12
2018-10-21T16:15:12.421Z,102495.37
2018-10-21T16:17:40.481Z,102491.49
2018-10-21T16:20:08.652Z,102492.66
2018-10-21T16:22:38.257Z,102494.40
2018-10-21T16:25:07.150Z,102489.80
2018-10-21T16:27:35.201Z,102494.33
2018-10-21T16:30:03.340Z,102491.63
2018-10-21T16:32:31.514Z,102496.71
2018-10-21T16:34:59.460Z,102494.34
2018-10-21T16:37:27.587Z,102493.77
2018-10-21T16:39:55.640Z,102501.55
2018-10-21T16:42:23.692Z,102499.92
2018-10-21T16:44:51.788Z,102496.64
2018-10-21T16:47:19.852Z,102499.44
2018-10-21T16:49:47.928Z,102498.27
2018-10-21T16:52:15.979Z,102499.17
2018-10-21T16:54:44.105Z,102501.17
2018-10-21T16:57:12.178Z,102494.19
2018-10-21T16:59:40.360Z,102490.31
2018-10-21T17:02:08.380Z,102501.81
2018-10-21T17:04:36.435Z,102492.61
2018-10-21T17:07:04.630Z,102495.67
2018-10-21T17:09:32.821Z,102502.08
2018-10-21T17:12:00.713Z,102495.33
2018-10-21T17:14:28.768Z,102497.06
2018-10-21T17:16:56.824Z,102499.36
2018-10-21T17:19:24.867Z,102489.59
2018-10-21T17:21:52.941Z,102493.03
2018-10-21T17:24:21.032Z,102493.38
2018-10-21T17:26:49.205Z,102493.71
2018-10-21T17:29:17.247Z,102500.69
2018-10-21T17:31:45.317Z,102499.30
2018-10-21T17:34:13.365Z,102500.69
2018-10-21T17:36:41.455Z,102494.28
2018-10-21T17:39:11.780Z,102498.46
2018-10-21T17:41:40.678Z,102500.42
2018-10-21T17:44:08.738Z,102492.47
2018-10-21T17:46:37.199Z,102485.00
2018-10-21T17:49:05.273Z,102483.13
2018-10-21T17:51:33.372Z,102485.42
2018-10-21T17:54:01.479Z,102486.89
2018-10-21T17:56:29.540Z,102481.01
2018-10-21T17:58:57.612Z,102478.86
2018-10-21T18:01:25.704Z,102474.68
2018-10-21T18:03:53.762Z,102474.68
2018-10-21T18:06:21.884Z,102470.27
2018-10-21T18:08:49.956Z,102464.99
2018-10-21T18:11:18.022Z,102475.02
2018-10-21T18:13:46.123Z,102470.57
2018-10-21T18:16:14.260Z,102472.80
2018-10-21T18:18:42.259Z,102481.23
2018-10-21T18:21:10.324Z,102479.35
2018-10-21T18:23:38.399Z,102466.88
2018-10-21T18:26:06.800Z,102478.60
2018-10-21T18:28:34.767Z,102474.42
2018-10-21T18:31:08.851Z,102473.59
2018-10-21T18:33:42.737Z,102464.73
2018-10-21T18:36:10.788Z,102474.00
2018-10-21T18:38:42.017Z,102463.75
2018-10-21T18:41:10.384Z,102464.16
2018-10-21T18:43:38.349Z,102469.81
2018-10-21T18:46:06.441Z,102463.52
2018-10-21T18:48:34.523Z,102460.58
2018-10-21T18:51:02.793Z,102461.78
2018-10-21T18:53:30.881Z,102462.19
2018-10-21T18:55:58.975Z,102469.27
2018-10-21T18:58:27.107Z,102464.09
2018-10-21T19:00:55.129Z,102468.92
2018-10-21T19:03:23.176Z,102467.11
2018-10-21T19:05:51.235Z,102475.30
2018-10-21T19:08:19.313Z,102467.13
2018-10-21T19:10:47.737Z,102472.50
2018-10-21T19:13:15.915Z,102473.23
2018-10-21T19:15:43.947Z,102468.06
2018-10-21T19:18:12.029Z,102470.42
2018-10-21T19:20:40.097Z,102477.72
2018-10-21T19:23:08.188Z,102478.13
2018-10-21T19:25:36.289Z,102474.28
2018-10-21T19:28:04.501Z,102471.00
2018-10-21T19:30:33.512Z,102470.73
2018-10-21T19:33:01.581Z,102473.78
2018-10-21T19:35:29.661Z,102464.27
2018-10-21T19:37:57.747Z,102462.97
2018-10-21T19:40:25.828Z,102460.42
2018-10-21T19:42:53.977Z,102464.03
2018-10-21T19:45:21.976Z,102465.09
2018-10-21T19:47:50.253Z,102459.30
2018-10-21T19:50:18.380Z,102463.20
2018-10-21T19:52:46.591Z,102461.31
2018-10-21T19:55:14.840Z,102462.22
2018-10-21T19:57:43.185Z,102465.89
2018-10-21T20:00:13.722Z,102464.00
2018-10-21T20:02:41.876Z,102464.00
2018-10-21T20:05:10.478Z,102457.37
2018-10-21T20:07:38.742Z,102455.16
2018-10-21T20:10:08.971Z,102452.70
2018-10-21T20:12:37.237Z,102460.49
2018-10-21T20:15:06.237Z,102459.73
2018-10-21T20:17:34.332Z,102458.11
2018-10-21T20:20:02.392Z,102454.83
2018-10-21T20:22:30.440Z,102452.94
2018-10-21T20:24:58.520Z,102452.73
2018-10-21T20:27:26.598Z,102458.14
2018-10-21T20:29:54.656Z,102458.70
2018-10-21T20:32:22.728Z,102461.75
2018-10-21T20:34:50.813Z,102465.92
2018-10-21T20:37:18.932Z,102469.54
2018-10-21T20:39:47.010Z,102460.86
2018-10-21T20:42:15.115Z,102460.29
2018-10-21T20:44:43.153Z,102463.31
2018-10-21T20:47:11.228Z,102453.33
2018-10-21T20:49:39.692Z,102453.56
2018-10-21T20:52:07.794Z,102452.17
2018-10-21T20:54:41.365Z,102451.34
2018-10-21T20:57:10.525Z,102454.72
2018-10-21T20:59:40.025Z,102457.73
2018-10-21T21:02:08.980Z,102454.95
2018-10-21T21:04:37.089Z,102454.95
2018-10-21T21:07:05.844Z,102447.77
2018-10-21T21:09:33.897Z,102448.66
2018-10-21T21:12:01.981Z,102452.83
2018-10-21T21:14:30.060Z,102446.11
2018-10-21T21:16:58.114Z,102452.23
2018-10-21T21:19:26.200Z,102448.76
2018-10-21T21:21:54.248Z,102455.61
2018-10-21T21:24:22.345Z,102450.45
2018-10-21T21:26:50.392Z,102450.06
2018-10-21T21:29:18.572Z,102449.90
2018-10-21T21:31:47.026Z,102443.98
2018-10-21T21:34:15.742Z,102443.02
2018-10-21T21:36:43.790Z,102442.68
2018-10-21T21:39:14.079Z,102445.55
2018-10-21T21:41:43.438Z,102439.56
2018-10-21T21:44:11.501Z,102442.50
2018-10-21T21:46:40.327Z,102450.64
2018-10-21T21:49:09.467Z,102451.38
2018-10-21T21:51:37.600Z,102452.86
2018-10-21T21:54:06.540Z,102452.85
2018-10-21T21:56:34.609Z,102450.05
2018-10-21T21:59:02.670Z,102451.13
2018-10-21T22:01:30.716Z,102453.55
2018-10-21T22:03:58.789Z,102451.17
2018-10-21T22:06:26.927Z,102458.03
2018-10-21T22:08:54.978Z,102460.72
2018-10-21T22:11:23.036Z,102456.71
2018-10-21T22:13:51.090Z,102455.95
2018-10-21T22:16:19.157Z,102449.55
2018-10-21T22:18:47.200Z,102442.36
2018-10-21T22:21:15.267Z,102442.36
2018-10-21T22:23:43.311Z,102434.34
2018-10-21T22:26:11.365Z,102436.80
2018-10-21T22:28:39.420Z,102432.28
2018-10-21T22:31:07.478Z,102419.75
2018-10-21T22:33:35.533Z,102420.91
2018-10-21T22:36:03.598Z,102416.14
2018-10-21T22:38:31.728Z,102413.35
2018-10-21T22:40:59.796Z,102419.52
2018-10-21T22:43:27.889Z,102420.64
2018-10-21T22:45:56.006Z,102418.36
2018-10-21T22:48:24.064Z,102416.97
2018-10-21T22:50:52.140Z,102415.91
2018-10-21T22:53:20.211Z,102416.30
2018-10-21T22:55:48.264Z,102419.09
2018-10-21T22:58:16.379Z,102416.05
2018-10-21T23:00:44.396Z,102418.27
2018-10-21T23:03:12.456Z,102410.73
2018-10-21T23:05:40.516Z,102417.13
2018-10-21T23:08:08.576Z,102414.09
2018-10-21T23:10:36.630Z,102409.67
2018-10-21T23:13:04.676Z,102401.06
2018-10-21T23:15:32.765Z,102402.19
2018-10-21T23:18:00.834Z,102405.61
2018-10-21T23:20:28.891Z,102397.25
2018-10-21T23:22:56.976Z,102395.09
2018-10-21T23:25:25.045Z,102393.81
2018-10-21T23:27:53.088Z,102394.94
2018-10-21T23:30:21.260Z,102401.06
2018-10-21T23:32:49.237Z,102387.25
2018-10-21T23:35:17.312Z,102390.33
2018-10-21T23:37:45.389Z,102389.44
2018-10-21T23:40:13.641Z,102390.06
2018-10-21T23:42:41.625Z,102390.89
2018-10-21T23:45:09.665Z,102380.25
2018-10-21T23:47:37.763Z,102375.25
2018-10-21T23:50:06.327Z,102382.21
2018-10-21T23:52:34.392Z,102386.66
2018-10-21T23:55:02.448Z,102388.61
2018-10-21T23:57:30.528Z,102392.52
2018-10-21T23:59:58.609Z,102392.28
